Aviation Digital Data Service (ADDS)

Output produced by METARs form (0639 UTC 24 March 2019)
found at http://www.aviationweather.gov/metar/data/
 
LWOH 240630Z 35003KT 9999 FEW040 10/M04 Q1022
TAF LWOH 240530Z 2406/2506 VRB02KT CAVOK 
     BECMG 2408/2410 16006KT
       
LWSK 240630Z 03006KT 360V060 CAVOK 11/01 Q1023 NOSIG
TAF LWSK 240530Z 2406/2506 VRB02KT CAVOK